Time;durP1;ratioP1;P1;durP2;ratioP2;P2;SDS_P1;SDS_P2;PMS_P1;PMS_P2;Temp;Humidity;BMP_temperature;BMP_pressure;BME280_temperature;BME280_humidity;BME280_pressure;Samples;Min_cycle;Max_cycle;Signal;HPM_P1;HPM_P2
2021/06/28 00:01:23;;;;;;;4.70;4.30;;;26.10;54.60;;;;;;4967176;29;20176;-82
2021/06/28 00:03:49;;;;;;;4.50;3.97;;;26.00;55.10;;;;;;4967531;29;20183;-82
2021/06/28 00:06:15;;;;;;;4.40;4.00;;;26.10;54.60;;;;;;4936695;29;20195;-82
2021/06/28 00:08:42;;;;;;;4.00;3.70;;;26.10;54.70;;;;;;4967172;29;20427;-81
2021/06/28 00:11:09;;;;;;;4.00;3.70;;;26.10;54.70;;;;;;4936150;29;20416;-82
2021/06/28 00:13:40;;;;;;;4.17;3.87;;;26.10;54.60;;;;;;4935480;29;20459;-82
2021/06/28 00:16:07;;;;;;;4.90;4.50;;;26.10;54.60;;;;;;4967009;29;20432;-81
2021/06/28 00:18:33;;;;;;;4.57;4.20;;;26.10;54.70;;;;;;4934938;29;20432;-81
2021/06/28 00:21:00;;;;;;;4.13;3.83;;;26.10;54.70;;;;;;4935753;29;20484;-81
2021/06/28 00:23:26;;;;;;;3.97;3.67;;;26.10;54.70;;;;;;4935682;29;20441;-80
2021/06/28 00:25:53;;;;;;;4.90;4.50;;;26.10;54.70;;;;;;4934885;29;20439;-80
2021/06/28 00:28:21;;;;;;;4.13;3.83;;;26.00;54.60;;;;;;4934869;29;20427;-81
2021/06/28 00:30:48;;;;;;;4.70;4.30;;;26.00;54.60;;;;;;4935455;29;20420;-81
2021/06/28 00:33:17;;;;;;;4.77;4.37;;;26.00;54.60;;;;;;4934503;29;20459;-81
2021/06/28 00:35:44;;;;;;;4.97;4.50;;;26.00;54.70;;;;;;4934218;29;20423;-81
2021/06/28 00:38:10;;;;;;;4.43;4.03;;;26.10;54.80;;;;;;4934433;29;20431;-81
2021/06/28 00:40:38;;;;;;;5.80;4.40;;;26.10;54.80;;;;;;4934396;29;20471;-81
2021/06/28 00:43:04;;;;;;;5.03;4.53;;;26.00;54.70;;;;;;4934325;29;20518;-81
2021/06/28 00:45:33;;;;;;;4.53;4.23;;;26.00;54.70;;;;;;4934722;29;20420;-81
2021/06/28 00:48:02;;;;;;;4.67;4.27;;;26.00;54.70;;;;;;4933719;29;20424;-81
2021/06/28 00:50:35;;;;;;;4.27;3.97;;;26.00;54.70;;;;;;4934441;29;20424;-81
2021/06/28 00:53:05;;;;;;;4.83;4.40;;;26.00;54.80;;;;;;4933760;29;20510;-81
2021/06/28 00:55:33;;;;;;;6.70;4.30;;;26.00;54.80;;;;;;4934444;29;20430;-81
2021/06/28 00:57:59;;;;;;;4.70;4.37;;;26.00;54.80;;;;;;4934765;29;20408;-81
2021/06/28 01:00:29;;;;;;;4.63;4.23;;;26.00;54.90;;;;;;4934871;29;20404;-81
2021/06/28 01:02:56;;;;;;;4.77;4.37;;;26.00;54.80;;;;;;4933229;29;20411;-82
2021/06/28 01:05:25;;;;;;;4.73;4.33;;;26.00;54.90;;;;;;4935303;29;20439;-82
2021/06/28 01:07:51;;;;;;;4.77;4.37;;;26.00;55.00;;;;;;4933533;29;20456;-82
2021/06/28 01:10:19;;;;;;;4.20;3.90;;;26.00;54.90;;;;;;4934591;29;20933;-82
2021/06/28 01:12:47;;;;;;;4.67;4.27;;;26.00;54.80;;;;;;4934110;29;20416;-82
2021/06/28 01:15:14;;;;;;;4.50;4.20;;;26.00;54.80;;;;;;4933778;29;20430;-82
2021/06/28 01:17:45;;;;;;;4.77;4.37;;;26.00;54.80;;;;;;4933686;29;20420;-81
2021/06/28 01:20:20;;;;;;;4.20;3.90;;;26.00;54.90;;;;;;4918206;29;20431;-82
2021/06/28 01:22:50;;;;;;;4.60;4.20;;;26.00;54.90;;;;;;4933321;29;20415;-82
2021/06/28 01:25:24;;;;;;;4.50;4.20;;;26.00;54.90;;;;;;4933884;29;20460;-82
2021/06/28 01:27:51;;;;;;;4.50;4.20;;;26.00;54.90;;;;;;4933501;29;20420;-82
2021/06/28 01:30:29;;;;;;;5.17;4.77;;;26.00;55.00;;;;;;4936861;29;20408;-81
2021/06/28 01:32:56;;;;;;;4.70;4.40;;;26.00;55.00;;;;;;4937651;29;20459;-81
2021/06/28 01:35:25;;;;;;;5.13;4.63;;;26.00;55.10;;;;;;4938143;29;20420;-83
2021/06/28 01:37:52;;;;;;;4.87;4.47;;;26.00;55.00;;;;;;4938947;29;20415;-82
2021/06/28 01:40:19;;;;;;;4.50;4.10;;;26.00;55.10;;;;;;4937736;29;20427;-82
2021/06/28 01:42:47;;;;;;;5.43;5.00;;;26.00;55.00;;;;;;4938358;29;20805;-82
2021/06/28 01:45:21;;;;;;;4.90;4.50;;;26.00;55.00;;;;;;4938706;29;20428;-82
2021/06/28 01:47:49;;;;;;;5.73;5.23;;;26.00;54.90;;;;;;4938205;29;20418;-82
2021/06/28 01:50:16;;;;;;;4.67;4.30;;;26.00;55.00;;;;;;4938194;29;20418;-82
2021/06/28 01:52:47;;;;;;;4.90;4.50;;;26.00;55.00;;;;;;4939574;29;20396;-82
2021/06/28 01:55:19;;;;;;;5.27;4.87;;;26.00;55.10;;;;;;4939824;29;20487;-82
2021/06/28 01:57:53;;;;;;;4.83;4.43;;;26.00;55.10;;;;;;4938423;29;20427;-81
2021/06/28 02:00:30;;;;;;;4.37;4.07;;;26.00;55.00;;;;;;4938388;29;20416;-81
2021/06/28 02:03:11;;;;;;;4.83;4.43;;;26.00;55.00;;;;;;4935242;29;20423;-81
2021/06/28 02:05:48;;;;;;;5.60;5.10;;;26.00;55.00;;;;;;4938994;29;20439;-81
2021/06/28 02:08:17;;;;;;;5.97;5.50;;;25.90;55.10;;;;;;4923903;29;20439;-81
2021/06/28 02:10:48;;;;;;;6.83;4.60;;;26.00;55.10;;;;;;4922469;29;20430;-81
2021/06/28 02:13:32;;;;;;;5.07;4.70;;;26.00;55.20;;;;;;4938336;29;20455;-81
2021/06/28 02:16:01;;;;;;;4.47;4.17;;;26.00;55.30;;;;;;4938563;29;20415;-82
2021/06/28 02:18:29;;;;;;;5.70;5.20;;;26.00;55.30;;;;;;4938338;29;20451;-82
2021/06/28 02:21:01;;;;;;;5.03;4.63;;;26.00;55.20;;;;;;4938205;29;20420;-81
2021/06/28 02:23:32;;;;;;;5.37;4.87;;;25.90;55.10;;;;;;4938376;29;20459;-82
2021/06/28 02:26:06;;;;;;;4.67;4.27;;;26.00;55.20;;;;;;4937825;29;20419;-82
2021/06/28 02:28:38;;;;;;;5.73;5.20;;;26.00;55.30;;;;;;4937408;29;20423;-82
2021/06/28 02:31:07;;;;;;;4.93;4.53;;;26.00;55.30;;;;;;4937822;29;20464;-82
2021/06/28 02:33:37;;;;;;;5.40;5.00;;;26.00;55.30;;;;;;4938564;29;20448;-82
2021/06/28 02:36:06;;;;;;;6.30;5.80;;;26.00;55.40;;;;;;4938823;29;20467;-82
2021/06/28 02:38:33;;;;;;;5.50;5.10;;;25.90;55.40;;;;;;4938113;29;20459;-82
2021/06/28 02:41:01;;;;;;;5.70;5.20;;;26.00;55.50;;;;;;4937669;29;20411;-83
2021/06/28 02:43:31;;;;;;;5.60;5.10;;;25.90;55.50;;;;;;4938730;29;20420;-82
2021/06/28 02:45:58;;;;;;;6.03;5.57;;;26.00;55.60;;;;;;4937848;29;20456;-82
2021/06/28 02:48:25;;;;;;;6.40;5.90;;;26.00;55.60;;;;;;4937533;29;20424;-82
2021/06/28 02:50:52;;;;;;;6.43;5.83;;;25.90;55.60;;;;;;4937566;29;20434;-82
2021/06/28 02:53:19;;;;;;;5.73;5.23;;;26.00;55.70;;;;;;4920905;29;20478;-82
2021/06/28 02:55:52;;;;;;;6.63;6.00;;;26.00;55.70;;;;;;4938128;29;20420;-82
2021/06/28 02:58:21;;;;;;;5.30;4.90;;;26.00;55.70;;;;;;4937723;29;20419;-81
2021/06/28 03:00:48;;;;;;;6.40;5.40;;;26.00;55.70;;;;;;4921470;29;20499;-81
2021/06/28 03:03:15;;;;;;;5.87;5.40;;;25.90;55.60;;;;;;4937154;29;20426;-81
2021/06/28 03:05:43;;;;;;;5.83;5.33;;;26.00;55.70;;;;;;4936928;29;20454;-81
2021/06/28 03:08:10;;;;;;;6.17;5.57;;;25.90;55.70;;;;;;4936891;29;20439;-81
2021/06/28 03:10:38;;;;;;;5.40;4.90;;;26.00;55.70;;;;;;4937264;29;20439;-81
2021/06/28 03:13:09;;;;;;;5.43;5.03;;;26.00;55.70;;;;;;4937105;29;20522;-81
2021/06/28 03:15:38;;;;;;;5.70;4.90;;;26.00;55.70;;;;;;4938723;29;20467;-81
2021/06/28 03:18:05;;;;;;;8.40;5.10;;;26.00;55.60;;;;;;4936570;29;20467;-81
2021/06/28 03:20:32;;;;;;;5.23;4.83;;;26.00;55.60;;;;;;4936769;29;20459;-81
2021/06/28 03:23:01;;;;;;;6.00;5.50;;;25.90;55.60;;;;;;4921386;29;20488;-81
2021/06/28 03:25:29;;;;;;;6.30;5.80;;;26.00;55.60;;;;;;4952323;29;20455;-81
2021/06/28 03:27:56;;;;;;;5.80;5.30;;;25.90;55.60;;;;;;4936493;29;20503;-81
2021/06/28 03:30:24;;;;;;;6.07;5.37;;;25.90;55.50;;;;;;4936862;29;20436;-81
2021/06/28 03:32:52;;;;;;;6.37;5.87;;;25.90;55.60;;;;;;4936461;29;20430;-81
2021/06/28 03:35:22;;;;;;;5.63;5.13;;;25.90;55.60;;;;;;4936280;29;20443;-81
2021/06/28 03:37:50;;;;;;;5.90;5.40;;;25.90;55.50;;;;;;4936977;29;20420;-81
2021/06/28 03:40:17;;;;;;;6.40;5.90;;;25.90;55.60;;;;;;4951646;29;20419;-81
2021/06/28 03:42:43;;;;;;;7.00;6.33;;;26.00;55.70;;;;;;4936729;29;20890;-81
2021/06/28 03:45:13;;;;;;;6.00;5.50;;;26.00;55.60;;;;;;4936885;29;20441;-82
2021/06/28 03:47:41;;;;;;;6.70;6.10;;;25.90;55.50;;;;;;4936965;29;20428;-82
2021/06/28 03:50:09;;;;;;;5.27;4.87;;;25.90;55.60;;;;;;4937954;29;20495;-82
2021/06/28 03:52:36;;;;;;;5.27;4.87;;;26.00;55.60;;;;;;4936214;29;20438;-82
2021/06/28 03:55:04;;;;;;;7.40;5.50;;;26.00;55.70;;;;;;4952331;29;20431;-82
2021/06/28 03:57:30;;;;;;;5.50;5.00;;;26.00;55.60;;;;;;4921215;29;20455;-82
2021/06/28 03:59:56;;;;;;;5.90;5.40;;;26.00;55.70;;;;;;4936263;29;20435;-81
2021/06/28 04:02:24;;;;;;;6.63;6.03;;;25.90;55.60;;;;;;4937227;29;20188;-82
2021/06/28 04:04:50;;;;;;;5.57;5.07;;;25.90;55.60;;;;;;4920407;29;20440;-84
2021/06/28 04:07:21;;;;;;;7.03;6.33;;;26.00;55.70;;;;;;4936743;29;20491;-82
2021/06/28 04:09:46;;;;;;;6.10;5.50;;;26.00;55.70;;;;;;4936124;29;20428;-83
2021/06/28 04:12:13;;;;;;;7.20;6.60;;;26.00;55.70;;;;;;4936467;29;21025;-82
2021/06/28 04:14:41;;;;;;;6.30;5.70;;;26.00;55.70;;;;;;4935491;29;20467;-81
2021/06/28 04:17:09;;;;;;;6.37;5.50;;;26.00;55.70;;;;;;4905434;29;20452;-82
2021/06/28 04:19:38;;;;;;;6.70;6.10;;;26.00;55.70;;;;;;4936504;29;20420;-82
2021/06/28 04:22:05;;;;;;;6.27;5.67;;;26.00;55.60;;;;;;4920753;29;20428;-82
2021/06/28 04:24:34;;;;;;;7.10;6.60;;;26.00;55.60;;;;;;4937352;29;20768;-82
2021/06/28 04:27:02;;;;;;;6.27;5.70;;;26.00;55.60;;;;;;4936695;29;20419;-82
2021/06/28 04:29:30;;;;;;;5.47;5.07;;;25.90;55.60;;;;;;4936748;29;20415;-82
2021/06/28 04:32:06;;;;;;;6.27;5.67;;;26.00;55.60;;;;;;4936390;29;20430;-84
2021/06/28 04:34:44;;;;;;;6.00;5.50;;;26.00;55.60;;;;;;4936913;29;20455;-82
2021/06/28 04:37:10;;;;;;;6.07;5.60;;;26.00;55.60;;;;;;4934987;29;20428;-82
2021/06/28 04:39:37;;;;;;;6.30;5.80;;;26.00;55.60;;;;;;4935969;29;20412;-82
2021/06/28 04:42:03;;;;;;;6.87;6.37;;;26.00;55.60;;;;;;4935909;29;20451;-81
2021/06/28 04:44:29;;;;;;;6.20;5.70;;;26.00;55.70;;;;;;4936007;29;20428;-82
2021/06/28 04:46:55;;;;;;;7.03;5.97;;;26.00;55.60;;;;;;4936739;29;20412;-82
2021/06/28 04:49:33;;;;;;;8.33;5.83;;;25.90;55.60;;;;;;4936302;29;20168;-82
2021/06/28 04:52:00;;;;;;;6.43;5.90;;;26.00;55.60;;;;;;4935867;29;20451;-82
2021/06/28 04:54:28;;;;;;;7.37;6.03;;;25.90;55.50;;;;;;4935957;29;20519;-82
2021/06/28 04:56:54;;;;;;;5.90;5.30;;;25.90;55.50;;;;;;4934613;29;20431;-82
2021/06/28 04:59:20;;;;;;;6.50;5.90;;;26.00;55.60;;;;;;4935236;29;20523;-82
2021/06/28 05:01:47;;;;;;;6.13;5.63;;;26.00;55.60;;;;;;4934534;29;20420;-82
2021/06/28 05:04:19;;;;;;;8.20;5.80;;;26.00;55.60;;;;;;4919010;29;20424;-85
2021/06/28 05:10:16;;;;;;;5.97;5.37;;;26.00;55.60;;;;;;4938186;29;20387;-81
2021/06/28 05:12:43;;;;;;;6.10;5.60;;;26.00;55.60;;;;;;4939004;29;20408;-81
2021/06/28 05:15:11;;;;;;;6.30;5.70;;;25.90;55.50;;;;;;4934903;29;20448;-81
2021/06/28 05:17:38;;;;;;;6.07;5.00;;;25.90;55.50;;;;;;4933864;29;20431;-82
2021/06/28 05:20:11;;;;;;;6.60;6.00;;;26.00;55.60;;;;;;4933751;29;20427;-83
2021/06/28 05:22:38;;;;;;;6.80;6.20;;;25.90;55.60;;;;;;4935312;29;20419;-82
2021/06/28 05:25:06;;;;;;;5.40;5.00;;;26.00;55.60;;;;;;4936845;29;20444;-82
2021/06/28 05:27:33;;;;;;;7.40;5.50;;;25.90;55.50;;;;;;4936405;29;20411;-81
2021/06/28 05:30:02;;;;;;;5.57;5.07;;;25.90;55.50;;;;;;4936117;29;20410;-81
2021/06/28 05:32:28;;;;;;;5.40;5.00;;;26.00;55.60;;;;;;4934980;29;20420;-81
2021/06/28 05:34:55;;;;;;;6.20;5.70;;;25.90;55.50;;;;;;4934934;29;20466;-81
2021/06/28 05:37:25;;;;;;;5.80;5.30;;;26.00;55.60;;;;;;4934067;29;20428;-81
2021/06/28 05:39:51;;;;;;;5.80;5.30;;;26.00;55.50;;;;;;4933646;29;20435;-81
2021/06/28 05:42:17;;;;;;;9.63;6.83;;;26.00;55.60;;;;;;4934606;29;20443;-81
2021/06/28 05:44:43;;;;;;;6.00;5.50;;;26.00;55.60;;;;;;4932808;29;20416;-81
2021/06/28 05:47:12;;;;;;;6.43;6.03;;;26.00;55.60;;;;;;4934242;29;20428;-81
2021/06/28 05:49:42;;;;;;;6.57;5.97;;;26.00;56.10;;;;;;4935877;29;20545;-83
2021/06/28 05:52:09;;;;;;;6.90;6.20;;;26.00;55.70;;;;;;4934552;29;20446;-83
2021/06/28 05:54:37;;;;;;;6.50;5.90;;;26.00;55.80;;;;;;4932552;29;20874;-82
2021/06/28 05:57:03;;;;;;;6.77;6.13;;;26.00;56.20;;;;;;4916417;29;20428;-82
2021/06/28 05:59:34;;;;;;;6.27;5.77;;;26.00;56.00;;;;;;4949346;29;20427;-82
2021/06/28 06:02:07;;;;;;;6.73;6.23;;;26.00;55.90;;;;;;4932693;29;20424;-82
2021/06/28 06:04:33;;;;;;;6.80;6.10;;;26.10;55.80;;;;;;4932936;29;20451;-82
2021/06/28 06:07:00;;;;;;;6.70;6.20;;;26.10;55.70;;;;;;4932506;29;20511;-82
2021/06/28 06:09:28;;;;;;;6.87;6.17;;;26.10;55.60;;;;;;4964039;29;20435;-82
2021/06/28 06:11:54;;;;;;;6.70;6.10;;;26.10;55.70;;;;;;4963629;29;20438;-83
2021/06/28 06:14:21;;;;;;;8.70;5.83;;;26.20;55.80;;;;;;4915811;29;21002;-83
2021/06/28 06:16:47;;;;;;;7.00;6.40;;;26.20;55.90;;;;;;4967052;29;20423;-83
2021/06/28 06:19:13;;;;;;;7.20;6.50;;;26.20;55.90;;;;;;4936912;29;20416;-82
2021/06/28 06:21:39;;;;;;;6.73;6.13;;;26.20;55.80;;;;;;4936391;29;20400;-82
2021/06/28 06:24:06;;;;;;;6.97;6.37;;;26.20;55.80;;;;;;4935805;29;20179;-83
2021/06/28 06:26:35;;;;;;;6.40;5.80;;;26.30;55.90;;;;;;4966788;29;20431;-83
2021/06/28 06:29:01;;;;;;;6.17;5.67;;;26.20;55.70;;;;;;4967331;29;20434;-83
2021/06/28 06:31:30;;;;;;;6.77;6.17;;;26.30;55.90;;;;;;4968497;29;20420;-82
2021/06/28 06:33:56;;;;;;;6.53;6.03;;;26.30;55.80;;;;;;4967994;29;20488;-82
2021/06/28 06:36:36;;;;;;;6.67;6.07;;;26.30;55.90;;;;;;4967595;29;20803;-82
2021/06/28 06:39:03;;;;;;;6.90;6.30;;;26.30;55.90;;;;;;4967698;29;20450;-82
2021/06/28 06:41:31;;;;;;;6.67;5.80;;;26.30;55.90;;;;;;4935402;29;20428;-82
2021/06/28 06:43:59;;;;;;;6.80;6.17;;;26.30;55.90;;;;;;4967601;29;20435;-82
2021/06/28 06:46:25;;;;;;;6.03;5.53;;;26.40;55.90;;;;;;4935942;29;21005;-82
2021/06/28 06:48:52;;;;;;;5.73;5.23;;;26.40;55.90;;;;;;4936154;29;20483;-82
2021/06/28 06:51:21;;;;;;;6.60;6.00;;;26.40;55.90;;;;;;4936508;29;20479;-82
2021/06/28 06:53:49;;;;;;;6.90;6.23;;;26.40;55.90;;;;;;4950581;29;20459;-82
2021/06/28 06:56:20;;;;;;;7.10;6.40;;;26.40;55.90;;;;;;4935126;29;20475;-82
2021/06/28 06:58:46;;;;;;;6.47;5.93;;;26.40;55.90;;;;;;4930875;29;20436;-82
2021/06/28 07:01:16;;;;;;;7.07;6.37;;;26.40;55.90;;;;;;4916880;29;20421;-82
2021/06/28 07:03:42;;;;;;;6.70;6.20;;;26.40;55.90;;;;;;4931979;29;20950;-82
2021/06/28 07:06:11;;;;;;;7.20;6.60;;;26.40;55.80;;;;;;4916085;29;20465;-83
2021/06/28 07:08:38;;;;;;;5.70;5.20;;;26.50;55.90;;;;;;4923877;29;20420;-83
2021/06/28 07:11:11;;;;;;;6.47;5.93;;;26.50;55.90;;;;;;4935954;29;20456;-83
2021/06/28 07:13:49;;;;;;;7.30;6.40;;;26.40;55.80;;;;;;4966874;29;20455;-82
2021/06/28 07:16:30;;;;;;;5.60;5.20;;;26.50;55.90;;;;;;4967136;29;20459;-82
2021/06/28 07:19:00;;;;;;;6.20;5.70;;;26.50;55.90;;;;;;4922362;29;20460;-83
2021/06/28 07:21:29;;;;;;;6.20;5.63;;;26.50;55.90;;;;;;4967440;29;20504;-82
2021/06/28 07:23:57;;;;;;;6.23;5.73;;;26.50;55.90;;;;;;4919406;29;20416;-82
2021/06/28 07:26:32;;;;;;;6.23;5.73;;;26.50;55.70;;;;;;4966482;28;20465;-82
2021/06/28 07:28:59;;;;;;;6.77;6.27;;;26.40;55.70;;;;;;4965726;29;20512;-82
2021/06/28 07:31:28;;;;;;;6.20;5.60;;;26.50;55.80;;;;;;4917023;29;20450;-81
2021/06/28 07:33:55;;;;;;;6.70;6.00;;;26.60;55.90;;;;;;4919703;29;20468;-82
2021/06/28 07:36:25;;;;;;;5.60;5.20;;;26.50;55.90;;;;;;4936395;29;20484;-82
2021/06/28 07:38:54;;;;;;;6.30;5.80;;;26.60;55.90;;;;;;4936453;29;20451;-81
2021/06/28 07:41:23;;;;;;;6.57;5.97;;;26.60;55.90;;;;;;4936775;29;20419;-83
2021/06/28 07:43:49;;;;;;;6.20;5.70;;;26.60;55.80;;;;;;4920703;29;20432;-82
2021/06/28 07:46:19;;;;;;;5.90;5.40;;;26.60;55.80;;;;;;4935732;29;20412;-82
2021/06/28 07:48:46;;;;;;;6.33;5.83;;;26.60;55.80;;;;;;4918471;29;20428;-83
2021/06/28 07:51:13;;;;;;;5.93;5.43;;;26.60;55.70;;;;;;4935040;29;20426;-83
2021/06/28 07:53:43;;;;;;;6.00;5.50;;;26.60;55.80;;;;;;4966799;29;20523;-82
2021/06/28 07:56:29;;;;;;;;;;;;;;;;;;;;;
2021/06/28 07:59:06;;;;;;;5.90;5.40;;;26.60;55.60;;;;;;4935442;29;20396;-81
2021/06/28 08:01:37;;;;;;;5.70;5.20;;;26.60;55.60;;;;;;4936079;29;20927;-82
2021/06/28 08:04:06;;;;;;;5.47;4.97;;;26.60;55.70;;;;;;4966545;29;20424;-82
2021/06/28 08:06:36;;;;;;;5.80;5.30;;;26.60;55.60;;;;;;4966038;29;20432;-82
2021/06/28 08:09:10;;;;;;;6.07;5.57;;;26.60;55.60;;;;;;4966208;29;20455;-83
2021/06/28 08:14:25;;;;;;;5.50;5.10;;;26.60;55.50;;;;;;4915662;29;20459;-82
2021/06/28 08:16:51;;;;;;;6.07;5.57;;;26.70;55.60;;;;;;4915353;29;20432;-82
2021/06/28 08:19:21;;;;;;;5.97;5.37;;;26.60;55.50;;;;;;4915595;29;20500;-83
2021/06/28 08:21:48;;;;;;;6.30;5.80;;;26.70;55.70;;;;;;4932094;29;20435;-83
2021/06/28 08:24:16;;;;;;;5.77;5.27;;;26.60;55.60;;;;;;4934036;29;20431;-83
2021/06/28 08:26:45;;;;;;;5.93;5.43;;;26.70;55.60;;;;;;4965984;29;20424;-82
2021/06/28 08:29:15;;;;;;;6.40;5.00;;;26.70;55.70;;;;;;4935828;29;20439;-83
2021/06/28 08:31:45;;;;;;;5.40;5.00;;;26.70;55.60;;;;;;4966116;28;20423;-82
2021/06/28 08:34:14;;;;;;;5.80;5.37;;;26.70;55.60;;;;;;4934336;29;20487;-83
2021/06/28 08:36:46;;;;;;;5.37;4.90;;;26.70;55.60;;;;;;4965843;29;20435;-83
2021/06/28 08:39:17;;;;;;;4.97;4.57;;;26.70;55.60;;;;;;4965314;28;20421;-83
2021/06/28 08:41:53;;;;;;;6.13;5.53;;;26.70;55.70;;;;;;4935310;29;20398;-83
2021/06/28 08:44:39;;;;;;;4.93;4.53;;;26.70;55.70;;;;;;4959054;29;20439;-82
2021/06/28 08:47:06;;;;;;;5.33;4.93;;;26.70;55.70;;;;;;4933976;29;20396;-83
2021/06/28 08:49:34;;;;;;;5.47;5.03;;;26.70;55.70;;;;;;4933395;29;20516;-83
2021/06/28 08:52:01;;;;;;;4.97;4.47;;;26.70;55.70;;;;;;4940972;29;20432;-83
2021/06/28 08:54:27;;;;;;;5.50;5.10;;;26.70;55.80;;;;;;4934170;29;20471;-83
2021/06/28 08:56:57;;;;;;;4.97;4.57;;;26.70;55.70;;;;;;4935577;29;20424;-83
2021/06/28 08:59:32;;;;;;;5.50;5.10;;;26.70;55.70;;;;;;4934130;29;20426;-82
2021/06/28 09:02:03;;;;;;;5.63;5.03;;;26.80;55.80;;;;;;4934778;29;20415;-83
2021/06/28 09:04:34;;;;;;;4.80;4.40;;;26.80;55.80;;;;;;4935553;29;20420;-83
2021/06/28 09:07:20;;;;;;;5.17;4.77;;;26.80;55.70;;;;;;4934183;29;20438;-83
2021/06/28 09:09:47;;;;;;;5.10;4.60;;;26.80;55.80;;;;;;4934685;29;20472;-83
2021/06/28 09:12:15;;;;;;;5.00;4.60;;;26.70;55.80;;;;;;4934627;29;20430;-83
2021/06/28 09:14:53;;;;;;;5.27;4.77;;;26.80;55.70;;;;;;4933276;29;20455;-82
2021/06/28 09:17:36;;;;;;;5.30;4.80;;;26.80;55.70;;;;;;4918989;29;20451;-83
2021/06/28 09:20:32;;;;;;;5.47;4.97;;;26.80;55.80;;;;;;4934524;29;20430;-83
2021/06/28 09:22:59;;;;;;;4.30;4.00;;;26.80;55.80;;;;;;4935000;29;20440;-83
2021/06/28 09:25:42;;;;;;;6.30;5.03;;;26.80;55.80;;;;;;4921921;29;20419;-83
2021/06/28 09:28:08;;;;;;;4.93;4.53;;;26.80;55.80;;;;;;4900837;29;20458;-83
2021/06/28 09:30:50;;;;;;;5.83;5.33;;;26.80;55.80;;;;;;4912434;29;20431;-82
2021/06/28 09:33:20;;;;;;;5.30;4.80;;;26.80;55.80;;;;;;4911380;29;20466;-82
2021/06/28 09:35:50;;;;;;;5.67;5.17;;;26.80;55.80;;;;;;4912776;29;20413;-82
2021/06/28 09:38:39;;;;;;;4.53;4.13;;;26.80;55.80;;;;;;4915298;29;20775;-82
2021/06/28 09:41:35;;;;;;;10.00;4.63;;;26.90;55.80;;;;;;4913299;29;20511;-82
2021/06/28 09:44:06;;;;;;;4.60;4.23;;;26.90;55.80;;;;;;4913621;29;20887;-83
2021/06/28 09:46:37;;;;;;;4.90;4.50;;;26.80;55.80;;;;;;4914081;29;20449;-83
2021/06/28 09:49:26;;;;;;;4.90;4.50;;;26.80;55.80;;;;;;4913063;29;20437;-83
2021/06/28 09:51:54;;;;;;;4.80;4.40;;;26.80;55.70;;;;;;4915381;29;20448;-83
2021/06/28 09:54:59;;;;;;;5.67;5.17;;;26.90;55.90;;;;;;4914692;29;20519;-83
2021/06/28 09:57:25;;;;;;;4.57;4.27;;;26.90;55.90;;;;;;4914625;29;20420;-83
2021/06/28 09:59:52;;;;;;;4.80;4.40;;;26.90;55.80;;;;;;4917968;29;20424;-83
2021/06/28 10:05:59;;;;;;;4.57;4.23;;;26.90;55.80;;;;;;4918412;29;20448;-82
2021/06/28 10:09:06;;;;;;;4.80;4.40;;;26.90;55.80;;;;;;4918057;29;20452;-83
2021/06/28 10:11:32;;;;;;;4.70;4.30;;;26.90;55.80;;;;;;4906463;29;20425;-83
2021/06/28 10:14:06;;;;;;;4.73;4.33;;;26.90;56.40;;;;;;4917977;29;20491;-82
2021/06/28 10:16:39;;;;;;;5.20;4.80;;;26.90;55.70;;;;;;4903625;29;20436;-83
2021/06/28 10:19:08;;;;;;;6.07;5.57;;;26.90;55.80;;;;;;4917478;29;20417;-82
2021/06/28 10:21:37;;;;;;;4.53;4.10;;;26.90;55.70;;;;;;4951976;29;20474;-83
2021/06/28 10:24:05;;;;;;;5.20;4.77;;;26.90;55.70;;;;;;4955349;29;20423;-83
2021/06/28 10:26:32;;;;;;;4.00;3.70;;;27.00;55.70;;;;;;4955613;29;20502;-83
2021/06/28 10:28:58;;;;;;;4.07;3.77;;;26.90;55.70;;;;;;4943857;29;20431;-82
2021/06/28 10:31:24;;;;;;;4.40;4.10;;;27.00;55.40;;;;;;4936852;29;20491;-81
2021/06/28 10:34:00;;;;;;;4.63;4.23;;;27.00;55.60;;;;;;4933798;29;20225;-82
2021/06/28 10:36:39;;;;;;;4.70;4.30;;;27.00;55.50;;;;;;4917525;29;20441;-81
2021/06/28 10:39:12;;;;;;;4.13;3.83;;;27.00;55.50;;;;;;4916494;29;20414;-82
2021/06/28 10:42:07;;;;;;;4.83;4.47;;;27.00;55.50;;;;;;4918081;29;20449;-82
2021/06/28 10:45:13;;;;;;;4.73;4.23;;;27.00;55.40;;;;;;4936094;29;20439;-82
2021/06/28 10:47:41;;;;;;;4.60;4.20;;;27.00;55.40;;;;;;4915248;29;20518;-82
2021/06/28 10:50:19;;;;;;;4.37;4.07;;;27.00;55.50;;;;;;4936665;29;20420;-83
2021/06/28 10:52:48;;;;;;;4.17;3.77;;;27.00;55.40;;;;;;4934237;29;20396;-82
2021/06/28 10:55:44;;;;;;;4.40;4.10;;;27.00;55.40;;;;;;4932547;29;20519;-81
2021/06/28 10:58:31;;;;;;;4.50;4.10;;;27.00;55.30;;;;;;4876149;29;20418;-81
2021/06/28 11:01:17;;;;;;;5.43;4.90;;;27.00;55.30;;;;;;4859666;29;20474;-82
2021/06/28 11:04:03;;;;;;;5.13;4.73;;;27.00;55.40;;;;;;4861746;29;20454;-82
2021/06/28 11:06:28;;;;;;;5.53;5.00;;;26.90;55.30;;;;;;4877679;29;20956;-81
2021/06/28 11:09:09;;;;;;;8.67;6.20;;;27.00;55.40;;;;;;4862742;29;20419;-82
2021/06/28 11:12:05;;;;;;;8.50;6.70;;;27.00;55.30;;;;;;4878457;29;20606;-82
2021/06/28 11:14:56;;;;;;;7.37;6.53;;;27.00;55.40;;;;;;4843348;29;20532;-82
2021/06/28 11:17:42;;;;;;;6.67;6.00;;;26.90;55.30;;;;;;4808163;30;20488;-82
2021/06/28 11:20:38;;;;;;;11.60;7.00;;;27.00;55.40;;;;;;4808239;30;20418;-82
2021/06/28 11:23:14;;;;;;;8.63;6.60;;;26.90;55.30;;;;;;4792589;30;20467;-82
2021/06/28 11:25:52;;;;;;;8.30;7.47;;;26.90;55.30;;;;;;4793391;30;20497;-82
2021/06/28 11:28:24;;;;;;;7.60;6.80;;;26.90;55.30;;;;;;4792250;30;20426;-82
2021/06/28 11:31:29;;;;;;;8.77;6.97;;;26.90;55.30;;;;;;4793337;30;20449;-82
2021/06/28 11:34:00;;;;;;;8.40;6.50;;;27.00;55.30;;;;;;4809020;29;20458;-81
2021/06/28 11:43:06;;;;;;;7.57;6.77;;;26.90;55.30;;;;;;4842757;29;20448;-82
2021/06/28 11:45:54;;;;;;;7.80;7.10;;;26.90;55.40;;;;;;4842452;29;20450;-82
2021/06/28 11:51:46;;;;;;;9.10;7.53;;;26.90;55.30;;;;;;4842075;29;20417;-82
2021/06/28 11:54:17;;;;;;;11.67;7.57;;;26.90;55.40;;;;;;4823624;29;20460;-82
2021/06/28 12:00:17;;;;;;;7.50;6.67;;;26.90;55.30;;;;;;4791515;30;20440;-82
2021/06/28 12:03:04;;;;;;;8.50;6.47;;;26.90;55.40;;;;;;4791457;30;20414;-82
2021/06/28 12:05:33;;;;;;;6.90;6.20;;;26.80;55.30;;;;;;4791098;30;20457;-82
2021/06/28 12:07:59;;;;;;;7.80;7.10;;;26.90;55.40;;;;;;4791706;30;20449;-82
2021/06/28 12:10:38;;;;;;;8.50;7.20;;;26.90;55.40;;;;;;4791329;30;20487;-81
2021/06/28 12:13:05;;;;;;;8.20;6.87;;;26.90;55.40;;;;;;4787364;30;20230;-82
2021/06/28 12:15:33;;;;;;;7.80;7.00;;;26.90;55.40;;;;;;4791555;30;20439;-82
2021/06/28 12:18:08;;;;;;;9.20;6.93;;;26.90;55.40;;;;;;4805555;30;21003;-82
2021/06/28 12:20:56;;;;;;;6.80;6.10;;;26.90;55.30;;;;;;4818146;29;20432;-82
2021/06/28 12:23:24;;;;;;;7.10;6.17;;;26.90;55.30;;;;;;4803552;30;20410;-82
2021/06/28 12:25:54;;;;;;;7.70;6.20;;;26.90;55.40;;;;;;4838391;29;20427;-82
2021/06/28 12:28:30;;;;;;;7.70;6.53;;;26.90;55.40;;;;;;4860804;29;20446;-82
2021/06/28 12:30:56;;;;;;;7.23;6.57;;;26.90;55.30;;;;;;4910686;29;20439;-82
2021/06/28 12:33:22;;;;;;;7.90;6.63;;;26.90;55.40;;;;;;4933329;29;20471;-83
2021/06/28 12:35:58;;;;;;;8.23;6.37;;;26.90;55.40;;;;;;4935436;29;20419;-84
2021/06/28 12:38:29;;;;;;;8.87;7.80;;;26.90;55.40;;;;;;4933070;29;21286;-83
2021/06/28 12:40:57;;;;;;;8.13;6.50;;;26.90;55.40;;;;;;4931634;29;20423;-84
2021/06/28 12:43:26;;;;;;;5.90;5.30;;;26.90;55.50;;;;;;4933427;29;20479;-84
2021/06/28 12:46:06;;;;;;;7.60;6.60;;;26.90;55.50;;;;;;4933547;29;20439;-81
2021/06/28 12:48:32;;;;;;;7.40;6.13;;;26.90;55.60;;;;;;4932996;29;20400;-81
2021/06/28 12:51:05;;;;;;;6.43;5.83;;;26.90;55.60;;;;;;4949109;29;20435;-82
2021/06/28 12:53:36;;;;;;;7.40;6.23;;;27.00;55.70;;;;;;4933451;29;20460;-81
2021/06/28 12:56:20;;;;;;;6.70;6.10;;;26.90;55.60;;;;;;4918476;29;20420;-81
2021/06/28 12:58:57;;;;;;;7.50;6.50;;;27.00;55.70;;;;;;4935017;29;20455;-81
2021/06/28 13:01:40;;;;;;;6.90;6.20;;;26.90;55.80;;;;;;4933798;29;20388;-83
2021/06/28 13:04:26;;;;;;;6.07;5.47;;;27.00;55.80;;;;;;4933233;29;20411;-81
2021/06/28 13:06:54;;;;;;;5.33;4.80;;;27.00;55.70;;;;;;4935819;29;20487;-81
2021/06/28 13:09:23;;;;;;;6.60;6.00;;;27.00;55.80;;;;;;4933464;29;20459;-82
2021/06/28 13:11:55;;;;;;;8.60;6.57;;;27.00;55.80;;;;;;4932991;29;20521;-81
2021/06/28 13:14:45;;;;;;;6.10;5.47;;;27.00;55.80;;;;;;4964477;29;20462;-81
2021/06/28 13:17:27;;;;;;;6.27;5.67;;;27.00;55.70;;;;;;4964215;28;20428;-81
2021/06/28 13:20:16;;;;;;;8.40;5.60;;;27.00;55.80;;;;;;4964343;29;20423;-82
2021/06/28 13:22:43;;;;;;;7.10;5.80;;;27.00;55.70;;;;;;4909544;29;20432;-83
2021/06/28 13:25:23;;;;;;;6.07;5.47;;;27.00;55.80;;;;;;4880582;29;20444;-81
2021/06/28 13:27:53;;;;;;;6.40;5.50;;;27.00;55.80;;;;;;4883650;29;20429;-82
2021/06/28 13:30:24;;;;;;;5.63;5.13;;;27.00;55.80;;;;;;4868906;29;20481;-82
2021/06/28 13:33:07;;;;;;;6.83;6.13;;;27.10;55.90;;;;;;4883517;29;20963;-82